Time;durP1;ratioP1;P1;durP2;ratioP2;P2;SDS_P1;SDS_P2;PMS_P1;PMS_P2;Temp;Humidity;BMP_temperature;BMP_pressure;BME280_temperature;BME280_humidity;BME280_pressure;Samples;Min_cycle;Max_cycle;Signal;HPM_P1;HPM_P2
2021/03/31 00:00:57;;;;;;;17.73;13.07;;;6.90;99.90;;;;;;5008980;28;20403;-81
2021/03/31 00:03:23;;;;;;;18.93;13.40;;;6.80;99.90;;;;;;5007171;28;20741;-81
2021/03/31 00:05:49;;;;;;;19.17;14.25;;;6.90;99.90;;;;;;5007038;28;20387;-81
2021/03/31 00:08:14;;;;;;;17.88;14.02;;;6.80;99.90;;;;;;5012078;28;20396;-81
2021/03/31 00:10:49;;;;;;;18.35;15.25;;;6.70;99.90;;;;;;5012609;28;20394;-81
2021/03/31 00:13:16;;;;;;;16.85;13.98;;;6.70;99.90;;;;;;5010492;28;21295;-81
2021/03/31 00:15:42;;;;;;;19.90;16.90;;;6.70;99.90;;;;;;4993464;28;20490;-81
2021/03/31 00:18:09;;;;;;;19.55;16.58;;;6.70;99.90;;;;;;4993274;28;20385;-81
2021/03/31 00:20:36;;;;;;;17.63;14.02;;;6.70;99.90;;;;;;4993573;28;20396;-81
2021/03/31 00:23:07;;;;;;;17.38;15.10;;;6.70;99.90;;;;;;4994078;28;20503;-81
2021/03/31 00:25:33;;;;;;;20.90;16.80;;;6.60;99.90;;;;;;4993306;28;20381;-81
2021/03/31 00:27:59;;;;;;;26.13;19.57;;;6.60;99.90;;;;;;4991964;28;20946;-81
2021/03/31 00:30:25;;;;;;;21.27;17.40;;;6.60;99.90;;;;;;4992524;28;20377;-81
2021/03/31 00:32:51;;;;;;;20.77;17.27;;;6.60;99.90;;;;;;4992460;28;20845;-81
2021/03/31 00:35:16;;;;;;;20.77;17.35;;;6.60;99.90;;;;;;4992641;28;20509;-81
2021/03/31 00:37:42;;;;;;;22.33;19.00;;;6.60;99.90;;;;;;4990768;28;20381;-81
2021/03/31 00:40:10;;;;;;;22.47;18.37;;;6.60;99.90;;;;;;4992336;28;20870;-81
2021/03/31 00:42:36;;;;;;;20.48;17.20;;;6.50;99.90;;;;;;4991816;28;20403;-81
2021/03/31 00:45:04;;;;;;;22.42;17.73;;;6.50;99.90;;;;;;4993000;28;20388;-81
2021/03/31 00:47:29;;;;;;;21.90;18.77;;;6.50;99.90;;;;;;4992631;28;20519;-81
2021/03/31 00:49:55;;;;;;;22.95;17.88;;;6.50;99.90;;;;;;4993241;28;20946;-81
2021/03/31 00:52:21;;;;;;;22.80;18.52;;;6.40;99.90;;;;;;4993112;28;20381;-81
2021/03/31 00:54:47;;;;;;;21.25;17.50;;;6.40;99.90;;;;;;4991687;28;20373;-81
2021/03/31 00:57:13;;;;;;;17.52;15.65;;;6.40;99.90;;;;;;4991418;28;20389;-81
2021/03/31 00:59:39;;;;;;;19.92;17.50;;;6.30;99.90;;;;;;4991519;28;20448;-81
2021/03/31 01:02:05;;;;;;;20.65;16.50;;;6.30;99.90;;;;;;4992755;28;20981;-81
2021/03/31 01:04:30;;;;;;;20.17;16.47;;;6.30;99.90;;;;;;4992888;28;20464;-81
2021/03/31 01:06:56;;;;;;;21.13;16.13;;;6.20;99.90;;;;;;4992815;28;20393;-82
2021/03/31 01:09:23;;;;;;;20.83;16.65;;;6.20;99.90;;;;;;5009614;28;20451;-81
2021/03/31 01:12:02;;;;;;;18.13;16.20;;;6.10;99.90;;;;;;5004920;28;20455;-81
2021/03/31 01:14:55;;;;;;;18.90;16.02;;;6.20;99.90;;;;;;5010122;28;20409;-81
2021/03/31 01:17:34;;;;;;;17.35;15.00;;;6.10;99.90;;;;;;4995284;28;20455;-81
2021/03/31 01:20:30;;;;;;;20.38;16.65;;;6.10;99.90;;;;;;4992138;28;20385;-81
2021/03/31 01:23:38;;;;;;;24.38;18.45;;;6.00;99.90;;;;;;4992829;28;20428;-81
2021/03/31 01:26:09;;;;;;;23.95;19.13;;;6.00;99.90;;;;;;4992902;28;20383;-81
2021/03/31 01:29:03;;;;;;;22.30;18.80;;;6.00;99.90;;;;;;4991133;28;20393;-81
2021/03/31 01:31:59;;;;;;;25.17;22.30;;;6.00;99.90;;;;;;4992614;28;20871;-81
2021/03/31 01:34:46;;;;;;;26.50;21.05;;;6.00;99.90;;;;;;4992374;28;20393;-81
2021/03/31 01:37:31;;;;;;;31.13;21.17;;;5.90;99.90;;;;;;4990791;28;20397;-81
2021/03/31 01:39:58;;;;;;;24.75;20.27;;;5.90;99.90;;;;;;4992411;28;20385;-81
2021/03/31 01:42:27;;;;;;;21.63;19.10;;;5.90;99.90;;;;;;4992150;28;20400;-81
2021/03/31 01:44:58;;;;;;;26.17;19.40;;;5.80;99.90;;;;;;4992178;28;20392;-80
2021/03/31 01:47:25;;;;;;;23.05;19.65;;;5.80;99.90;;;;;;4990746;28;20516;-81
2021/03/31 01:49:53;;;;;;;23.67;19.15;;;5.80;99.90;;;;;;4992240;28;20420;-81
2021/03/31 01:52:21;;;;;;;23.20;19.95;;;5.70;99.90;;;;;;4990415;28;20428;-81
2021/03/31 01:54:47;;;;;;;27.97;22.70;;;5.70;99.90;;;;;;4991841;28;20407;-81
2021/03/31 01:57:13;;;;;;;28.27;22.08;;;5.70;99.90;;;;;;4991625;28;20779;-81
2021/03/31 01:59:41;;;;;;;28.77;22.27;;;5.60;99.90;;;;;;4991500;28;20392;-81
2021/03/31 02:02:10;;;;;;;25.83;22.73;;;5.60;99.90;;;;;;4991738;28;20404;-81
2021/03/31 02:04:38;;;;;;;29.20;23.65;;;5.60;99.90;;;;;;4991423;28;20378;-81
2021/03/31 02:07:05;;;;;;;31.02;24.10;;;5.60;99.90;;;;;;4991168;28;20514;-80
2021/03/31 02:09:41;;;;;;;26.77;22.93;;;5.60;99.90;;;;;;4991763;28;20409;-81
2021/03/31 02:12:08;;;;;;;30.17;23.15;;;5.50;99.90;;;;;;4991635;28;20903;-81
2021/03/31 02:14:38;;;;;;;29.10;24.13;;;5.50;99.90;;;;;;4991427;28;20463;-81
2021/03/31 02:17:07;;;;;;;30.00;23.85;;;5.40;99.90;;;;;;4991485;28;20475;-80
2021/03/31 02:19:33;;;;;;;28.25;23.60;;;5.50;99.90;;;;;;4990141;28;20385;-81
2021/03/31 02:22:00;;;;;;;28.17;22.98;;;5.40;99.90;;;;;;4991381;28;20756;-81
2021/03/31 02:24:27;;;;;;;29.33;24.33;;;5.40;99.90;;;;;;4990149;28;20386;-81
2021/03/31 02:26:53;;;;;;;29.05;24.52;;;5.40;99.90;;;;;;4991405;28;20500;-81
2021/03/31 02:29:18;;;;;;;31.00;25.40;;;5.40;99.90;;;;;;4990981;28;20899;-81
2021/03/31 02:31:45;;;;;;;31.27;26.57;;;5.30;99.90;;;;;;4991120;28;20392;-81
2021/03/31 02:34:14;;;;;;;30.52;25.85;;;5.30;99.90;;;;;;4991298;28;20468;-81
2021/03/31 02:36:40;;;;;;;37.58;28.60;;;5.30;99.90;;;;;;4990982;28;20475;-81
2021/03/31 02:39:09;;;;;;;33.33;27.30;;;5.30;99.90;;;;;;4990838;28;20416;-81
2021/03/31 02:41:39;;;;;;;29.05;25.45;;;5.30;99.90;;;;;;4990839;28;20405;-81
2021/03/31 02:44:06;;;;;;;29.95;23.98;;;5.30;99.90;;;;;;4991225;28;20421;-81
2021/03/31 02:46:34;;;;;;;27.25;23.17;;;5.20;99.90;;;;;;4991157;28;20392;-81
2021/03/31 02:49:00;;;;;;;28.60;22.85;;;5.20;99.90;;;;;;4989502;28;20818;-81
2021/03/31 02:51:32;;;;;;;36.50;26.48;;;5.10;99.90;;;;;;4990963;28;20879;-81
2021/03/31 02:54:00;;;;;;;40.55;28.10;;;5.10;99.90;;;;;;4989582;28;20407;-81
2021/03/31 02:56:27;;;;;;;30.20;26.25;;;5.10;99.90;;;;;;4990952;28;20385;-81
2021/03/31 02:58:53;;;;;;;28.67;23.33;;;5.10;99.90;;;;;;4990425;28;20391;-81
2021/03/31 03:01:19;;;;;;;29.08;24.35;;;5.00;99.90;;;;;;4990886;28;20408;-81
2021/03/31 03:03:45;;;;;;;31.67;24.87;;;5.00;99.90;;;;;;4991200;28;20381;-81
2021/03/31 03:06:11;;;;;;;34.10;26.40;;;5.00;99.90;;;;;;4991039;28;20385;-81
2021/03/31 03:08:37;;;;;;;33.22;26.60;;;4.90;99.90;;;;;;4990251;28;20814;-81
2021/03/31 03:11:03;;;;;;;33.05;25.60;;;4.90;99.90;;;;;;4990842;28;20903;-81
2021/03/31 03:13:31;;;;;;;31.93;25.93;;;4.90;99.90;;;;;;4990830;28;20389;-81
2021/03/31 03:15:57;;;;;;;29.63;24.45;;;4.90;99.90;;;;;;4990969;28;20806;-81
2021/03/31 03:18:24;;;;;;;30.02;24.20;;;4.90;99.90;;;;;;4989538;28;20467;-81
2021/03/31 03:20:51;;;;;;;29.00;23.52;;;4.90;99.90;;;;;;4989341;28;20432;-81
2021/03/31 03:23:18;;;;;;;29.95;24.63;;;4.90;99.90;;;;;;4989441;28;20391;-81
2021/03/31 03:25:46;;;;;;;31.27;25.15;;;4.90;99.90;;;;;;4990727;28;20791;-81
2021/03/31 03:28:22;;;;;;;43.47;26.20;;;4.80;99.90;;;;;;4990332;28;20465;-81
2021/03/31 03:30:49;;;;;;;41.58;25.30;;;4.80;99.90;;;;;;4990898;28;20459;-81
2021/03/31 03:33:16;;;;;;;40.33;25.03;;;4.80;99.90;;;;;;4989723;28;20389;-81
2021/03/31 03:35:42;;;;;;;35.70;24.05;;;4.80;99.90;;;;;;4990403;28;20793;-81
2021/03/31 03:38:08;;;;;;;32.83;23.25;;;4.80;99.90;;;;;;4989431;28;20385;-81
2021/03/31 03:40:35;;;;;;;34.10;24.90;;;4.70;99.90;;;;;;4989040;28;20397;-81
2021/03/31 03:43:01;;;;;;;26.50;23.02;;;4.70;99.90;;;;;;4993791;28;20878;-81
2021/03/31 03:45:29;;;;;;;32.13;24.30;;;4.70;99.90;;;;;;4994520;28;20428;-81
2021/03/31 03:47:55;;;;;;;35.47;27.30;;;4.70;99.90;;;;;;4994208;28;20388;-81
2021/03/31 03:50:22;;;;;;;33.10;23.90;;;4.60;99.90;;;;;;4994238;28;20381;-81
2021/03/31 03:52:49;;;;;;;30.58;23.85;;;4.60;99.90;;;;;;4994400;28;20373;-81
2021/03/31 03:55:19;;;;;;;30.08;24.20;;;4.70;99.90;;;;;;4994363;28;20440;-81
2021/03/31 03:57:45;;;;;;;29.95;25.42;;;4.60;99.90;;;;;;4993810;28;20936;-81
2021/03/31 04:00:17;;;;;;;32.47;26.30;;;4.60;99.90;;;;;;4992706;28;20472;-81
2021/03/31 04:02:43;;;;;;;44.80;29.02;;;4.60;99.90;;;;;;4993935;28;20385;-81
2021/03/31 04:05:10;;;;;;;40.90;27.93;;;4.60;99.90;;;;;;4994061;28;20392;-81
2021/03/31 04:07:36;;;;;;;33.97;28.03;;;4.60;99.90;;;;;;4992195;28;20420;-81
2021/03/31 04:10:03;;;;;;;32.85;26.92;;;4.60;99.90;;;;;;4993668;28;20381;-81
2021/03/31 04:12:31;;;;;;;34.43;26.40;;;4.60;99.90;;;;;;4993792;28;20505;-81
2021/03/31 04:14:57;;;;;;;32.90;26.23;;;4.50;99.90;;;;;;4993744;28;20875;-81
2021/03/31 04:17:23;;;;;;;30.20;25.48;;;4.60;99.90;;;;;;4993137;28;20461;-80
2021/03/31 04:19:50;;;;;;;31.83;26.23;;;4.50;99.90;;;;;;4993606;28;20403;-81
2021/03/31 04:22:16;;;;;;;37.33;28.15;;;4.50;99.90;;;;;;4993574;28;20397;-81
2021/03/31 04:24:42;;;;;;;35.70;28.23;;;4.50;99.90;;;;;;4993441;28;20392;-81
2021/03/31 04:27:11;;;;;;;32.55;26.65;;;4.50;99.90;;;;;;4992971;28;20377;-81
2021/03/31 04:29:42;;;;;;;37.72;28.80;;;4.50;99.90;;;;;;4993301;28;20443;-81
2021/03/31 04:32:16;;;;;;;35.53;29.25;;;4.40;99.90;;;;;;4992123;28;20396;-81
2021/03/31 04:34:43;;;;;;;35.08;28.83;;;4.40;99.90;;;;;;4993340;28;20402;-80
2021/03/31 04:37:09;;;;;;;35.85;28.25;;;4.40;99.90;;;;;;5008891;28;20420;-81
2021/03/31 04:39:39;;;;;;;33.83;27.23;;;4.40;99.90;;;;;;5011225;28;20384;-81
2021/03/31 04:42:06;;;;;;;34.28;26.52;;;4.40;99.90;;;;;;4995148;28;20415;-80
2021/03/31 04:44:32;;;;;;;36.95;28.23;;;4.40;99.90;;;;;;4993087;28;20750;-81
2021/03/31 04:46:58;;;;;;;32.80;25.92;;;4.30;99.90;;;;;;4992732;28;20385;-81
2021/03/31 04:49:23;;;;;;;33.10;26.63;;;4.30;99.90;;;;;;4992959;28;20790;-81
2021/03/31 04:51:49;;;;;;;34.13;26.97;;;4.30;99.90;;;;;;4992931;28;20400;-81
2021/03/31 04:54:14;;;;;;;31.43;24.87;;;4.30;99.90;;;;;;4991751;28;20396;-81
2021/03/31 04:56:40;;;;;;;34.75;26.85;;;4.30;99.90;;;;;;4992948;28;20460;-81
2021/03/31 04:59:06;;;;;;;33.05;26.27;;;4.30;99.90;;;;;;4992587;28;20369;-81
2021/03/31 05:01:31;;;;;;;39.73;28.10;;;4.30;99.90;;;;;;4992857;28;20791;-81
2021/03/31 05:03:57;;;;;;;38.80;28.90;;;4.30;99.90;;;;;;4992824;28;20436;-81
2021/03/31 05:06:22;;;;;;;47.47;30.15;;;4.30;99.90;;;;;;4992677;28;20399;-81
2021/03/31 05:08:48;;;;;;;52.60;28.58;;;4.30;99.90;;;;;;4992407;28;20384;-81
2021/03/31 05:11:13;;;;;;;48.67;27.53;;;4.30;99.90;;;;;;4992743;28;20453;-81
2021/03/31 05:13:39;;;;;;;38.17;25.07;;;4.40;99.90;;;;;;4992687;28;20400;-81
2021/03/31 05:16:05;;;;;;;30.17;22.97;;;4.30;99.90;;;;;;4992820;28;20392;-81
2021/03/31 05:18:30;;;;;;;28.15;22.67;;;4.40;99.90;;;;;;4992344;28;20373;-81
2021/03/31 05:20:56;;;;;;;33.90;23.77;;;4.50;99.90;;;;;;4992540;28;20436;-81
2021/03/31 05:23:22;;;;;;;29.85;23.15;;;4.50;99.90;;;;;;4992370;28;20393;-81
2021/03/31 05:25:47;;;;;;;28.93;22.57;;;4.60;99.90;;;;;;4992388;28;20388;-81
2021/03/31 05:28:13;;;;;;;99.17;27.87;;;4.60;99.90;;;;;;4992509;28;20788;-81
2021/03/31 05:30:38;;;;;;;73.17;25.33;;;4.60;99.90;;;;;;4991077;28;20463;-81
2021/03/31 05:33:05;;;;;;;45.33;23.40;;;4.70;99.90;;;;;;4992607;28;20389;-81
2021/03/31 05:35:30;;;;;;;31.05;21.88;;;4.70;99.90;;;;;;4992328;28;20396;-81
2021/03/31 05:37:56;;;;;;;25.65;21.13;;;4.80;99.90;;;;;;4992386;28;20776;-81
2021/03/31 05:40:21;;;;;;;35.83;22.05;;;4.90;99.90;;;;;;4992091;28;20416;-81
2021/03/31 05:42:47;;;;;;;31.07;18.87;;;5.00;99.90;;;;;;4990969;28;20381;-81
2021/03/31 05:45:13;;;;;;;23.90;17.13;;;5.20;99.90;;;;;;4992562;28;20373;-81
2021/03/31 05:47:43;;;;;;;20.67;16.27;;;5.30;99.90;;;;;;4990611;28;20384;-81
2021/03/31 05:50:15;;;;;;;17.15;14.07;;;5.40;99.90;;;;;;4990921;28;20911;-81
2021/03/31 05:52:42;;;;;;;18.20;14.43;;;5.60;99.90;;;;;;4990875;28;20882;-81
2021/03/31 05:55:09;;;;;;;17.10;13.63;;;5.70;99.90;;;;;;4991935;28;20373;-81
2021/03/31 05:57:37;;;;;;;15.90;13.47;;;5.90;99.90;;;;;;4990596;28;20819;-81
2021/03/31 06:00:14;;;;;;;18.35;13.45;;;6.10;99.90;;;;;;4991985;28;20432;-81
2021/03/31 06:02:41;;;;;;;18.90;13.80;;;6.30;99.90;;;;;;4990371;28;20404;-81
2021/03/31 06:05:09;;;;;;;21.75;13.57;;;6.50;99.90;;;;;;4990291;28;20420;-80
2021/03/31 06:07:35;;;;;;;22.40;13.18;;;6.60;99.90;;;;;;4991162;28;20464;-81
2021/03/31 06:10:07;;;;;;;22.83;16.60;;;7.00;99.90;;;;;;4990363;28;20479;-81
2021/03/31 06:12:35;;;;;;;21.40;16.13;;;7.20;99.90;;;;;;4991537;28;20380;-81
2021/03/31 06:15:17;;;;;;;28.10;16.07;;;7.30;99.90;;;;;;4991935;28;20496;-81
2021/03/31 06:17:59;;;;;;;41.08;16.30;;;7.50;99.90;;;;;;4990912;28;20417;-81
2021/03/31 06:20:45;;;;;;;45.28;17.73;;;7.80;99.90;;;;;;4991289;28;20460;-81
2021/03/31 06:26:38;;;;;;;27.05;14.95;;;8.40;99.90;;;;;;4991512;28;20388;-82
2021/03/31 06:29:06;;;;;;;24.13;16.50;;;8.70;99.90;;;;;;4990937;28;20389;-81
2021/03/31 06:31:34;;;;;;;25.50;16.33;;;9.00;99.90;;;;;;4991087;28;20763;-81
2021/03/31 06:34:05;;;;;;;26.02;15.90;;;9.20;99.90;;;;;;4989996;28;20373;-81
2021/03/31 06:36:52;;;;;;;28.52;16.05;;;9.50;99.90;;;;;;4991205;28;20381;-81
2021/03/31 06:39:33;;;;;;;31.60;17.15;;;9.70;99.90;;;;;;4990950;28;20467;-81
2021/03/31 06:42:01;;;;;;;27.70;17.00;;;;;;;;;;4991038;28;20408;-81
2021/03/31 06:49:34;;;;;;;20.48;16.40;;;;;;;;;;4991096;28;20399;-81
2021/03/31 06:52:07;;;;;;;21.52;17.00;;;;;;;;;;4991076;28;20476;-81
2021/03/31 06:54:49;;;;;;;26.70;17.08;;;;;;;;;;4991082;28;20369;-81
2021/03/31 06:57:23;;;;;;;24.55;17.20;;;;;;;;;;4990773;28;20388;-81
2021/03/31 06:59:56;;;;;;;86.28;20.35;;;;;;;;;;4990934;28;20863;-80
2021/03/31 07:02:22;;;;;;;30.70;16.35;;;;;;;;;;4989810;28;20424;-82
2021/03/31 07:04:48;;;;;;;29.92;17.33;;;;;;;;;;4990900;28;20383;-81
2021/03/31 07:07:14;;;;;;;28.05;16.65;;;;;;;;;;4989335;28;20391;-82
2021/03/31 07:09:40;;;;;;;30.77;17.25;;;;;;;;;;5016239;28;20367;-81
2021/03/31 07:12:22;;;;;;;27.92;17.02;;;;;;;;;;5018471;28;20391;-81
2021/03/31 07:14:49;;;;;;;23.50;16.42;;;;;;;;;;5011338;28;20704;-81
2021/03/31 07:17:21;;;;;;;25.43;16.60;;;;;;;;;;5012145;28;20383;-81
2021/03/31 07:19:47;;;;;;;24.50;16.83;;;;;;;;;;5012780;28;20405;-82
2021/03/31 07:22:14;;;;;;;30.48;16.27;;;;;;;;;;5011990;28;20865;-82
2021/03/31 07:24:40;;;;;;;24.42;15.85;;;;;;;;;;5011870;28;20806;-82
2021/03/31 07:27:08;;;;;;;24.15;16.33;;;;;;;;;;5012407;28;20815;-81
2021/03/31 07:29:34;;;;;;;21.33;15.95;;;;;;;;;;5000671;28;20381;-82
2021/03/31 07:32:00;;;;;;;21.63;15.45;;;;;;;;;;5004006;28;20865;-82
2021/03/31 07:34:28;;;;;;;26.73;15.35;;;;;;;;;;5006448;28;20399;-82
2021/03/31 07:36:55;;;;;;;23.95;15.75;;;;;;;;;;5006453;28;20399;-81
2021/03/31 07:39:24;;;;;;;25.08;15.73;;;;;;;;;;5005710;28;20386;-82
2021/03/31 07:41:50;;;;;;;23.67;14.95;;;;;;;;;;5011560;28;20855;-82
2021/03/31 07:44:22;;;;;;;27.75;16.02;;;;;;;;;;5000954;28;20393;-82
2021/03/31 07:46:49;;;;;;;23.15;15.30;;;;;;;;;;5005519;28;20403;-82
2021/03/31 07:49:16;;;;;;;25.03;16.07;;;;;;;;;;4995547;28;20828;-82
2021/03/31 07:51:55;;;;;;;27.02;16.35;;;;;;;;;;5005313;28;20395;-82
2021/03/31 07:54:21;;;;;;;23.58;15.95;;;;;;;;;;5000106;28;20490;-82
2021/03/31 07:56:48;;;;;;;23.92;15.20;;;;;;;;;;5008934;28;20549;-81
2021/03/31 07:59:16;;;;;;;24.70;15.02;;;;;;;;;;5008816;28;20384;-81
2021/03/31 08:01:44;;;;;;;22.42;15.10;;;;;;;;;;5010160;28;20457;-81
2021/03/31 08:04:11;;;;;;;23.92;14.48;;;;;;;;;;5010610;28;20418;-82
2021/03/31 08:06:38;;;;;;;25.60;15.40;;;;;;;;;;4999478;28;20404;-82
2021/03/31 08:09:05;;;;;;;23.70;15.43;;;;;;;;;;5000324;28;20410;-82
2021/03/31 08:11:41;;;;;;;23.75;15.30;;;;;;;;;;5007354;28;20389;-82
2021/03/31 08:14:08;;;;;;;21.80;14.65;;;;;;;;;;4993457;28;20389;-81
2021/03/31 08:16:38;;;;;;;40.88;14.88;;;;;;;;;;4993241;28;20377;-82
2021/03/31 08:19:05;;;;;;;27.77;15.25;;;;;;;;;;4991586;28;20860;-82
2021/03/31 08:21:32;;;;;;;22.27;13.77;;;;;;;;;;4992117;28;20409;-82
2021/03/31 08:24:00;;;;;;;32.28;14.65;;;;;;;;;;4992084;28;20484;-82
2021/03/31 08:26:29;;;;;;;25.38;14.00;;;18.40;99.90;;;;;;4992622;28;20916;-83
2021/03/31 08:28:55;;;;;;;23.20;14.00;;;18.40;99.90;;;;;;4992770;28;20391;-83
2021/03/31 08:31:27;;;;;;;22.30;13.90;;;18.60;99.90;;;;;;4993084;28;20385;-84
2021/03/31 08:33:53;;;;;;;26.17;15.43;;;18.70;99.90;;;;;;4991887;28;20816;-83
2021/03/31 08:36:19;;;;;;;25.27;15.48;;;18.90;99.90;;;;;;4993311;28;20470;-83
2021/03/31 08:38:52;;;;;;;27.80;16.23;;;18.90;99.90;;;;;;4991506;28;20385;-82
2021/03/31 08:41:21;;;;;;;24.17;15.90;;;19.00;99.90;;;;;;4992768;28;20413;-82
2021/03/31 08:43:48;;;;;;;24.07;16.10;;;19.10;99.90;;;;;;4993035;28;20389;-83
2021/03/31 08:46:30;;;;;;;25.27;16.33;;;19.30;99.90;;;;;;4991652;28;20438;-84
2021/03/31 08:48:56;;;;;;;23.25;16.08;;;19.40;99.90;;;;;;4992690;28;20894;-82
2021/03/31 08:51:22;;;;;;;23.95;15.45;;;19.40;99.90;;;;;;4991749;28;20408;-83
2021/03/31 08:53:49;;;;;;;25.67;15.60;;;19.40;99.90;;;;;;4992958;28;20389;-83
2021/03/31 08:56:22;;;;;;;26.77;15.83;;;19.60;99.90;;;;;;4992608;28;20428;-83
2021/03/31 08:58:52;;;;;;;26.60;15.38;;;19.70;99.90;;;;;;4992475;28;20443;-82
2021/03/31 09:01:28;;;;;;;28.85;17.10;;;19.80;99.90;;;;;;4992664;28;20412;-83
2021/03/31 09:04:13;;;;;;;25.45;16.35;;;19.90;99.90;;;;;;4991357;28;20384;-84
2021/03/31 09:06:38;;;;;;;28.48;15.45;;;20.10;99.90;;;;;;5008124;28;20533;-83
2021/03/31 09:09:04;;;;;;;39.43;17.17;;;20.00;99.80;;;;;;5002142;28;20894;-82
2021/03/31 09:11:30;;;;;;;32.75;16.45;;;20.20;98.40;;;;;;5007270;28;20418;-82
2021/03/31 09:13:56;;;;;;;26.05;16.55;;;20.40;97.70;;;;;;5007108;28;20388;-83
2021/03/31 09:16:24;;;;;;;26.97;16.63;;;20.40;94.70;;;;;;5007988;28;20383;-83
2021/03/31 09:18:50;;;;;;;24.63;15.53;;;20.50;95.30;;;;;;5008419;28;20406;-83
2021/03/31 09:21:26;;;;;;;24.05;15.63;;;20.50;92.80;;;;;;5010148;28;20406;-83
2021/03/31 09:23:52;;;;;;;25.40;16.02;;;20.70;90.50;;;;;;5009510;28;20379;-84
2021/03/31 09:26:21;;;;;;;22.87;15.00;;;20.80;91.50;;;;;;5007878;28;20375;-83
2021/03/31 09:28:47;;;;;;;24.35;15.18;;;21.00;90.50;;;;;;5008690;28;20394;-83
2021/03/31 09:31:22;;;;;;;23.05;14.88;;;21.10;91.00;;;;;;5007628;28;20395;-85
2021/03/31 09:33:47;;;;;;;22.55;14.57;;;21.30;85.30;;;;;;5008016;28;20442;-83
2021/03/31 09:36:17;;;;;;;20.00;14.50;;;21.30;78.40;;;;;;5009310;28;20870;-84
2021/03/31 09:38:43;;;;;;;25.90;14.40;;;21.40;79.60;;;;;;5008212;28;20445;-83
2021/03/31 09:41:09;;;;;;;25.25;15.07;;;21.50;79.10;;;;;;5011055;28;20415;-84
2021/03/31 09:43:35;;;;;;;20.98;13.43;;;21.40;79.60;;;;;;5009398;28;20382;-83
2021/03/31 09:46:02;;;;;;;23.92;14.70;;;21.50;78.90;;;;;;5008661;28;20425;-83
2021/03/31 09:48:28;;;;;;;24.80;14.70;;;21.50;76.90;;;;;;4991738;28;20388;-83
2021/03/31 09:50:54;;;;;;;21.07;14.57;;;21.50;78.70;;;;;;4992780;28;20389;-83
2021/03/31 09:53:29;;;;;;;24.63;14.60;;;21.40;78.50;;;;;;5010063;28;20398;-84
2021/03/31 09:55:54;;;;;;;32.47;15.52;;;21.60;80.00;;;;;;4991768;28;20396;-84
2021/03/31 09:58:25;;;;;;;22.80;14.38;;;21.70;78.30;;;;;;4992953;28;20381;-84
2021/03/31 10:00:51;;;;;;;28.45;15.52;;;21.80;79.00;;;;;;5000539;28;20414;-84
2021/03/31 10:03:19;;;;;;;25.92;16.25;;;21.90;79.20;;;;;;5009518;28;20403;-83
2021/03/31 10:05:44;;;;;;;26.33;15.38;;;22.00;81.80;;;;;;5007796;28;20919;-85
2021/03/31 10:08:10;;;;;;;25.77;15.80;;;22.10;79.70;;;;;;5008990;28;20395;-84
2021/03/31 10:10:46;;;;;;;27.15;15.68;;;21.80;75.20;;;;;;5009130;28;20405;-80
2021/03/31 10:13:14;;;;;;;25.13;15.48;;;21.70;78.70;;;;;;5010389;28;20434;-82
2021/03/31 10:15:42;;;;;;;27.23;15.70;;;21.80;80.50;;;;;;5008099;28;20391;-83
2021/03/31 10:18:09;;;;;;;27.40;16.00;;;22.00;79.90;;;;;;5008467;28;20399;-83
2021/03/31 10:20:41;;;;;;;45.10;16.65;;;22.00;80.30;;;;;;5009471;28;20392;-83
2021/03/31 10:23:07;;;;;;;25.85;15.43;;;22.10;79.80;;;;;;5010361;28;20513;-83
2021/03/31 10:25:33;;;;;;;23.60;15.48;;;22.20;77.60;;;;;;5004048;28;20391;-84
2021/03/31 10:27:59;;;;;;;25.75;15.90;;;22.20;77.70;;;;;;5003196;28;20382;-82
2021/03/31 10:30:27;;;;;;;26.23;15.30;;;22.20;75.40;;;;;;5007440;28;20899;-83
2021/03/31 10:32:53;;;;;;;24.88;15.73;;;22.10;76.50;;;;;;5006765;28;20781;-84
2021/03/31 10:35:53;;;;;;;23.55;14.90;;;22.20;72.90;;;;;;5008270;28;20383;-82
2021/03/31 10:38:39;;;;;;;23.65;15.90;;;22.20;74.70;;;;;;5007796;28;20395;-84
2021/03/31 10:47:05;;;;;;;22.58;14.60;;;22.20;73.00;;;;;;5003622;28;20434;-84
2021/03/31 10:49:51;;;;;;;23.20;15.00;;;22.30;73.80;;;;;;5005645;28;20398;-82
2021/03/31 10:52:21;;;;;;;27.80;16.20;;;22.40;73.60;;;;;;5008422;28;20387;-84
2021/03/31 10:54:46;;;;;;;24.80;16.00;;;22.40;74.00;;;;;;5005911;28;20390;-82
2021/03/31 10:57:13;;;;;;;25.83;15.40;;;22.30;73.80;;;;;;5001610;28;20381;-83
2021/03/31 10:59:40;;;;;;;23.17;14.70;;;22.30;73.40;;;;;;5009110;28;20382;-83
2021/03/31 11:02:06;;;;;;;27.23;15.13;;;22.30;71.70;;;;;;5008029;28;20505;-83
2021/03/31 11:04:32;;;;;;;24.60;14.43;;;22.40;69.70;;;;;;5006509;28;20474;-83
2021/03/31 11:06:58;;;;;;;25.37;15.73;;;22.50;68.50;;;;;;5005747;28;20825;-83
2021/03/31 11:09:30;;;;;;;24.05;15.52;;;22.50;72.00;;;;;;5005980;28;20399;-83
2021/03/31 11:11:59;;;;;;;26.42;16.83;;;22.50;71.80;;;;;;5005236;28;20431;-84
2021/03/31 11:14:29;;;;;;;26.73;16.27;;;22.60;69.40;;;;;;5008450;28;20402;-83
2021/03/31 11:16:59;;;;;;;24.38;15.07;;;22.50;71.90;;;;;;5003125;28;20383;-83
2021/03/31 11:27:27;;;;;;;25.60;17.17;;;22.50;72.90;;;;;;5007613;28;20373;-83
2021/03/31 11:29:53;;;;;;;24.38;16.92;;;22.50;69.70;;;;;;5008028;28;20379;-83
2021/03/31 11:32:19;;;;;;;27.33;16.30;;;22.50;72.90;;;;;;5009339;28;20375;-83
2021/03/31 11:34:44;;;;;;;24.90;15.73;;;22.50;70.50;;;;;;5004939;28;20883;-83
2021/03/31 11:37:10;;;;;;;21.57;13.57;;;22.50;62.80;;;;;;5006860;28;20893;-85
2021/03/31 11:39:36;;;;;;;22.92;14.70;;;22.40;65.50;;;;;;5007693;28;20757;-82
2021/03/31 11:42:02;;;;;;;21.63;13.87;;;22.50;63.70;;;;;;5008512;28;20445;-82
2021/03/31 11:44:27;;;;;;;26.50;14.15;;;22.50;64.10;;;;;;5008564;28;20395;-84
2021/03/31 11:46:53;;;;;;;26.73;15.03;;;22.50;64.60;;;;;;5008079;28;20394;-84
2021/03/31 11:49:18;;;;;;;25.05;14.43;;;22.50;67.50;;;;;;5008859;28;20949;-84
2021/03/31 11:51:44;;;;;;;27.07;15.67;;;22.50;66.40;;;;;;5010024;28;20390;-83
2021/03/31 11:54:12;;;;;;;23.57;15.67;;;22.50;66.20;;;;;;5010359;28;20420;-84
2021/03/31 11:56:37;;;;;;;23.45;15.18;;;22.50;67.10;;;;;;5008200;28;20486;-83
2021/03/31 11:59:03;;;;;;;24.63;16.17;;;22.50;67.80;;;;;;5010173;28;20451;-83
2021/03/31 12:01:29;;;;;;;25.95;15.52;;;22.60;68.40;;;;;;5009374;28;20434;-81
2021/03/31 12:03:54;;;;;;;24.63;14.77;;;22.60;67.30;;;;;;5012606;28;20379;-83
2021/03/31 12:06:20;;;;;;;24.58;15.02;;;22.50;67.50;;;;;;5014179;28;20430;-82
2021/03/31 12:08:49;;;;;;;23.57;14.40;;;22.60;67.20;;;;;;5002469;28;20392;-84
2021/03/31 12:11:16;;;;;;;24.53;14.63;;;22.60;64.30;;;;;;4993619;28;20380;-82
2021/03/31 12:13:42;;;;;;;22.10;13.50;;;22.60;63.10;;;;;;4993495;28;20384;-84
2021/03/31 12:16:08;;;;;;;24.67;13.63;;;22.60;64.00;;;;;;4994560;28;20863;-83
2021/03/31 12:18:34;;;;;;;26.60;13.97;;;22.60;66.60;;;;;;4994116;28;20381;-83
2021/03/31 12:21:00;;;;;;;31.80;16.05;;;22.70;66.80;;;;;;4993582;28;20441;-83
2021/03/31 12:23:26;;;;;;;22.83;14.35;;;22.70;64.10;;;;;;4993897;28;20381;-82
2021/03/31 12:25:52;;;;;;;21.42;14.40;;;22.60;64.20;;;;;;4994799;28;20488;-83
2021/03/31 12:28:21;;;;;;;27.07;13.77;;;22.60;66.10;;;;;;4994096;28;20407;-83
2021/03/31 12:30:46;;;;;;;22.17;14.35;;;22.70;66.40;;;;;;5002316;28;20379;-83
2021/03/31 12:33:12;;;;;;;19.30;13.50;;;22.80;64.40;;;;;;5003414;28;21014;-82
2021/03/31 12:35:38;;;;;;;24.48;15.13;;;22.70;65.70;;;;;;5007864;28;20379;-83
2021/03/31 12:38:04;;;;;;;20.98;13.00;;;22.80;66.80;;;;;;5007370;28;20395;-83
2021/03/31 12:40:29;;;;;;;27.67;13.20;;;22.80;64.40;;;;;;5010422;28;20379;-83
2021/03/31 12:42:55;;;;;;;20.20;12.73;;;22.80;66.00;;;;;;5005550;28;20502;-83
2021/03/31 12:45:20;;;;;;;17.33;12.18;;;22.90;64.80;;;;;;5009130;28;20398;-83
2021/03/31 12:47:48;;;;;;;17.63;12.33;;;22.90;65.30;;;;;;5008894;28;20521;-84
2021/03/31 12:50:17;;;;;;;18.63;12.77;;;22.90;64.70;;;;;;5010913;28;20394;-83
2021/03/31 12:52:48;;;;;;;19.55;12.02;;;22.80;63.30;;;;;;5008866;28;20761;-83
2021/03/31 12:55:18;;;;;;;20.33;12.68;;;22.70;64.10;;;;;;5010511;28;20387;-82
2021/03/31 12:57:44;;;;;;;21.60;12.68;;;22.70;65.30;;;;;;5007110;28;20398;-84
2021/03/31 13:00:10;;;;;;;19.37;12.50;;;22.80;62.80;;;;;;5008796;28;20392;-83
2021/03/31 13:02:36;;;;;;;19.23;12.88;;;22.90;63.30;;;;;;5006647;28;20989;-82
2021/03/31 13:05:04;;;;;;;20.60;12.83;;;22.90;63.60;;;;;;5008763;28;20383;-83
2021/03/31 13:07:31;;;;;;;18.65;11.82;;;22.90;65.40;;;;;;5007870;28;20865;-84
2021/03/31 13:09:57;;;;;;;17.77;11.48;;;22.80;63.40;;;;;;5007787;28;20398;-83
2021/03/31 13:12:42;;;;;;;95.47;18.83;;;22.80;62.00;;;;;;5008711;28;20375;-84
2021/03/31 13:23:07;;;;;;;21.23;11.27;;;22.80;63.50;;;;;;4991299;28;20387;-83